Terminal Aerodrome Forecast
Issued by NWS

Home | Current Version | Previous Version | Text Only | Print | Product List | Glossary On
Versions: 1 2 3 4 5 6 7 8 9 10 11 12 13 14 15 16 17 18
000
FTUS43 KTOP 072332
TAFFOE
TAF
KFOE 072332Z 0800/0824 04005KT 5SM -SHRA BR SCT035 BKN080
     FM081100 05002KT 6SM -SHRA BR SCT013 OVC023
     FM081400 04006KT 3SM -RA BR OVC008=

USA.gov is the U.S. government's official web portal to all federal, state and local government web resources and services.